sensor_id;sensor_type;location;lat;lon;timestamp;pressure;altitude;pressure_sealevel;temperature;humidity
39075;BME280;24826;52.070;20.970;2023-03-22T00:00:02;61398.66;;;-147.04;100.00
39075;BME280;24826;52.070;20.970;2023-03-22T00:03:09;61412.56;;;-147.04;100.00
39075;BME280;24826;52.070;20.970;2023-03-22T00:05:57;61380.75;;;-147.04;100.00
39075;BME280;24826;52.070;20.970;2023-03-22T00:08:41;61408.59;;;-147.04;100.00
39075;BME280;24826;52.070;20.970;2023-03-22T00:11:26;61388.72;;;-147.04;100.00
39075;BME280;24826;52.070;20.970;2023-03-22T00:14:10;61378.78;;;-147.04;100.00
39075;BME280;24826;52.070;20.970;2023-03-22T00:16:55;61390.72;;;-147.04;100.00
39075;BME280;24826;52.070;20.970;2023-03-22T00:19:39;61380.75;;;-147.04;100.00
39075;BME280;24826;52.070;20.970;2023-03-22T00:22:25;61346.97;;;-147.04;100.00
39075;BME280;24826;52.070;20.970;2023-03-22T00:25:09;61378.78;;;-147.04;100.00
39075;BME280;24826;52.070;20.970;2023-03-22T00:27:54;61384.75;;;-147.04;100.00
39075;BME280;24826;52.070;20.970;2023-03-22T00:30:38;61368.84;;;-147.04;100.00
39075;BME280;24826;52.070;20.970;2023-03-22T00:33:23;61368.84;;;-147.04;100.00
39075;BME280;24826;52.070;20.970;2023-03-22T00:36:09;61372.81;;;-147.04;100.00
39075;BME280;24826;52.070;20.970;2023-03-22T00:38:54;61364.84;;;-147.04;100.00
39075;BME280;24826;52.070;20.970;2023-03-22T00:41:38;61364.84;;;-147.04;100.00
39075;BME280;24826;52.070;20.970;2023-03-22T00:44:23;61412.56;;;-147.04;100.00
39075;BME280;24826;52.070;20.970;2023-03-22T00:47:07;61342.97;;;-147.04;100.00
39075;BME280;24826;52.070;20.970;2023-03-22T00:49:51;61388.72;;;-147.04;100.00
39075;BME280;24826;52.070;20.970;2023-03-22T00:52:35;61352.94;;;-147.04;100.00
39075;BME280;24826;52.070;20.970;2023-03-22T00:55:20;61412.56;;;-147.04;100.00
39075;BME280;24826;52.070;20.970;2023-03-22T00:58:04;61398.66;;;-147.04;100.00
39075;BME280;24826;52.070;20.970;2023-03-22T01:00:49;61424.50;;;-147.04;100.00
39075;BME280;24826;52.070;20.970;2023-03-22T01:03:34;61462.28;;;-147.04;100.00
39075;BME280;24826;52.070;20.970;2023-03-22T01:06:18;61412.56;;;-147.04;100.00
39075;BME280;24826;52.070;20.970;2023-03-22T01:09:03;61396.66;;;-147.04;100.00
39075;BME280;24826;52.070;20.970;2023-03-22T01:11:48;61396.66;;;-147.04;100.00
39075;BME280;24826;52.070;20.970;2023-03-22T01:14:32;61382.75;;;-147.04;100.00
39075;BME280;24826;52.070;20.970;2023-03-22T01:17:16;61380.75;;;-147.04;100.00
39075;BME280;24826;52.070;20.970;2023-03-22T01:20:00;61396.66;;;-147.04;100.00
39075;BME280;24826;52.070;20.970;2023-03-22T01:22:45;61392.69;;;-147.04;100.00
39075;BME280;24826;52.070;20.970;2023-03-22T01:25:30;61396.66;;;-147.04;100.00
39075;BME280;24826;52.070;20.970;2023-03-22T01:28:14;61432.47;;;-147.04;100.00
39075;BME280;24826;52.070;20.970;2023-03-22T01:31:01;61396.66;;;-147.04;100.00
39075;BME280;24826;52.070;20.970;2023-03-22T01:33:46;61490.13;;;-147.04;100.00
39075;BME280;24826;52.070;20.970;2023-03-22T01:36:30;61374.78;;;-147.04;100.00
39075;BME280;24826;52.070;20.970;2023-03-22T01:39:15;61392.69;;;-147.04;100.00
39075;BME280;24826;52.070;20.970;2023-03-22T01:42:01;61398.66;;;-147.04;100.00
39075;BME280;24826;52.070;20.970;2023-03-22T01:48:03;61384.75;;;-147.04;100.00
39075;BME280;24826;52.070;20.970;2023-03-22T01:51:02;61362.88;;;-147.04;100.00
39075;BME280;24826;52.070;20.970;2023-03-22T01:53:50;61400.66;;;-147.04;100.00
39075;BME280;24826;52.070;20.970;2023-03-22T01:56:38;61416.56;;;-147.04;100.00
39075;BME280;24826;52.070;20.970;2023-03-22T01:59:23;61392.69;;;-147.04;100.00
39075;BME280;24826;52.070;20.970;2023-03-22T02:02:08;61380.75;;;-147.04;100.00
39075;BME280;24826;52.070;20.970;2023-03-22T02:05:01;61384.75;;;-147.04;100.00
39075;BME280;24826;52.070;20.970;2023-03-22T02:07:48;61408.59;;;-147.04;100.00
39075;BME280;24826;52.070;20.970;2023-03-22T02:10:32;61502.06;;;-147.04;100.00
39075;BME280;24826;52.070;20.970;2023-03-22T02:16:23;61400.66;;;-147.04;100.00
39075;BME280;24826;52.070;20.970;2023-03-22T02:28:55;61416.56;;;-147.04;100.00
39075;BME280;24826;52.070;20.970;2023-03-22T02:37:49;61418.53;;;-147.04;100.00
39075;BME280;24826;52.070;20.970;2023-03-22T02:46:48;61398.66;;;-147.04;100.00
39075;BME280;24826;52.070;20.970;2023-03-22T02:50:21;61396.66;;;-147.04;100.00
39075;BME280;24826;52.070;20.970;2023-03-22T02:56:04;61392.69;;;-147.04;100.00
39075;BME280;24826;52.070;20.970;2023-03-22T02:58:52;61416.56;;;-147.04;100.00
39075;BME280;24826;52.070;20.970;2023-03-22T03:01:50;61400.66;;;-147.04;100.00
39075;BME280;24826;52.070;20.970;2023-03-22T03:04:40;61390.72;;;-147.04;100.00
39075;BME280;24826;52.070;20.970;2023-03-22T03:07:27;61386.72;;;-147.04;100.00
39075;BME280;24826;52.070;20.970;2023-03-22T03:10:14;61394.69;;;-147.04;100.00
39075;BME280;24826;52.070;20.970;2023-03-22T03:12:59;61404.63;;;-147.04;100.00
39075;BME280;24826;52.070;20.970;2023-03-22T03:15:48;61426.50;;;-147.04;100.00
39075;BME280;24826;52.070;20.970;2023-03-22T03:21:35;61384.75;;;-147.04;100.00
39075;BME280;24826;52.070;20.970;2023-03-22T03:24:39;61404.63;;;-147.04;100.00
39075;BME280;24826;52.070;20.970;2023-03-22T03:27:37;61432.47;;;-147.04;100.00
39075;BME280;24826;52.070;20.970;2023-03-22T03:30:30;61420.53;;;-147.04;100.00
39075;BME280;24826;52.070;20.970;2023-03-22T03:33:19;61414.56;;;-147.04;100.00
39075;BME280;24826;52.070;20.970;2023-03-22T03:36:10;61436.44;;;-147.04;100.00
39075;BME280;24826;52.070;20.970;2023-03-22T03:38:56;61412.56;;;-147.04;100.00
39075;BME280;24826;52.070;20.970;2023-03-22T03:41:43;61424.50;;;-147.04;100.00
39075;BME280;24826;52.070;20.970;2023-03-22T03:44:30;61394.69;;;-147.04;100.00
39075;BME280;24826;52.070;20.970;2023-03-22T03:47:15;61400.66;;;-147.04;100.00
39075;BME280;24826;52.070;20.970;2023-03-22T03:50:00;61412.56;;;-147.04;100.00
39075;BME280;24826;52.070;20.970;2023-03-22T03:52:45;61396.66;;;-147.04;100.00
39075;BME280;24826;52.070;20.970;2023-03-22T03:55:30;61420.53;;;-147.04;100.00
39075;BME280;24826;52.070;20.970;2023-03-22T03:58:15;61418.53;;;-147.04;100.00
39075;BME280;24826;52.070;20.970;2023-03-22T04:01:00;61382.75;;;-147.04;100.00
39075;BME280;24826;52.070;20.970;2023-03-22T04:03:44;61424.50;;;-147.04;100.00
39075;BME280;24826;52.070;20.970;2023-03-22T04:06:29;61424.50;;;-147.04;100.00
39075;BME280;24826;52.070;20.970;2023-03-22T04:09:17;61416.56;;;-147.04;100.00
39075;BME280;24826;52.070;20.970;2023-03-22T04:12:02;61400.66;;;-147.04;100.00
39075;BME280;24826;52.070;20.970;2023-03-22T04:14:47;61428.47;;;-147.04;100.00
39075;BME280;24826;52.070;20.970;2023-03-22T04:17:31;61408.59;;;-147.04;100.00
39075;BME280;24826;52.070;20.970;2023-03-22T04:20:16;61398.66;;;-147.04;100.00
39075;BME280;24826;52.070;20.970;2023-03-22T04:23:00;61382.75;;;-147.04;100.00
39075;BME280;24826;52.070;20.970;2023-03-22T04:25:45;61364.84;;;-147.04;100.00
39075;BME280;24826;52.070;20.970;2023-03-22T04:28:33;61388.72;;;-147.04;100.00
39075;BME280;24826;52.070;20.970;2023-03-22T04:31:17;61394.69;;;-147.04;100.00
39075;BME280;24826;52.070;20.970;2023-03-22T04:34:02;61392.69;;;-147.04;100.00
39075;BME280;24826;52.070;20.970;2023-03-22T04:36:48;61396.66;;;-147.04;100.00
39075;BME280;24826;52.070;20.970;2023-03-22T04:39:33;61392.69;;;-147.04;100.00
39075;BME280;24826;52.070;20.970;2023-03-22T04:42:18;61358.88;;;-147.04;100.00
39075;BME280;24826;52.070;20.970;2023-03-22T04:45:04;61400.66;;;-147.04;100.00
39075;BME280;24826;52.070;20.970;2023-03-22T04:47:48;61400.66;;;-147.04;100.00
39075;BME280;24826;52.070;20.970;2023-03-22T04:50:32;61390.72;;;-147.04;100.00
39075;BME280;24826;52.070;20.970;2023-03-22T04:53:17;61444.41;;;-147.04;100.00
39075;BME280;24826;52.070;20.970;2023-03-22T04:56:01;61372.81;;;-147.04;100.00
39075;BME280;24826;52.070;20.970;2023-03-22T04:58:49;61396.66;;;-147.04;100.00
39075;BME280;24826;52.070;20.970;2023-03-22T05:01:33;61404.63;;;-147.04;100.00
39075;BME280;24826;52.070;20.970;2023-03-22T05:04:19;61412.56;;;-147.04;100.00
39075;BME280;24826;52.070;20.970;2023-03-22T05:07:03;61420.53;;;-147.04;100.00
39075;BME280;24826;52.070;20.970;2023-03-22T05:09:48;61438.44;;;-147.04;100.00
39075;BME280;24826;52.070;20.970;2023-03-22T05:12:33;61416.56;;;-147.04;100.00
39075;BME280;24826;52.070;20.970;2023-03-22T05:15:17;61458.31;;;-147.04;100.00
39075;BME280;24826;52.070;20.970;2023-03-22T05:18:02;61444.41;;;-147.04;100.00
39075;BME280;24826;52.070;20.970;2023-03-22T05:20:47;61462.28;;;-147.04;100.00
39075;BME280;24826;52.070;20.970;2023-03-22T05:23:31;61428.47;;;-147.04;100.00
39075;BME280;24826;52.070;20.970;2023-03-22T05:26:16;61448.38;;;-147.04;100.00
39075;BME280;24826;52.070;20.970;2023-03-22T05:29:03;61539.84;;;-147.04;100.00
39075;BME280;24826;52.070;20.970;2023-03-22T05:31:48;61478.19;;;-147.04;100.00
39075;BME280;24826;52.070;20.970;2023-03-22T05:34:33;61466.25;;;-147.04;100.00
39075;BME280;24826;52.070;20.970;2023-03-22T05:37:18;61476.22;;;-147.04;100.00
39075;BME280;24826;52.070;20.970;2023-03-22T05:40:04;61418.53;;;-147.04;100.00
39075;BME280;24826;52.070;20.970;2023-03-22T05:42:53;61468.25;;;-147.04;100.00
39075;BME280;24826;52.070;20.970;2023-03-22T05:45:38;61456.31;;;-147.04;100.00
39075;BME280;24826;52.070;20.970;2023-03-22T05:48:22;61506.03;;;-147.04;100.00
39075;BME280;24826;52.070;20.970;2023-03-22T05:51:12;61515.97;;;-147.04;100.00
39075;BME280;24826;52.070;20.970;2023-03-22T05:54:00;61482.19;;;-147.04;100.00
39075;BME280;24826;52.070;20.970;2023-03-22T05:56:45;61498.09;;;-147.04;100.00
39075;BME280;24826;52.070;20.970;2023-03-22T05:59:30;61496.09;;;-147.04;100.00
39075;BME280;24826;52.070;20.970;2023-03-22T06:02:14;61480.19;;;-147.04;100.00
39075;BME280;24826;52.070;20.970;2023-03-22T06:04:59;61476.22;;;-147.04;100.00
39075;BME280;24826;52.070;20.970;2023-03-22T06:07:44;61476.22;;;-147.04;100.00
39075;BME280;24826;52.070;20.970;2023-03-22T06:10:28;61506.03;;;-147.04;100.00
39075;BME280;24826;52.070;20.970;2023-03-22T06:13:13;61488.13;;;-147.04;100.00
39075;BME280;24826;52.070;20.970;2023-03-22T06:15:59;61492.13;;;-147.04;100.00
39075;BME280;24826;52.070;20.970;2023-03-22T06:18:43;61490.13;;;-147.04;100.00
39075;BME280;24826;52.070;20.970;2023-03-22T06:21:28;61452.34;;;-147.04;100.00
39075;BME280;24826;52.070;20.970;2023-03-22T06:24:12;61502.06;;;-147.04;100.00
39075;BME280;24826;52.070;20.970;2023-03-22T06:26:57;61508.03;;;-147.04;100.00
39075;BME280;24826;52.070;20.970;2023-03-22T06:29:41;61492.13;;;-147.04;100.00
39075;BME280;24826;52.070;20.970;2023-03-22T06:32:26;61514.00;;;-147.04;100.00
39075;BME280;24826;52.070;20.970;2023-03-22T06:35:10;61492.13;;;-147.04;100.00
39075;BME280;24826;52.070;20.970;2023-03-22T06:37:54;61519.94;;;-147.04;100.00
39075;BME280;24826;52.070;20.970;2023-03-22T06:40:39;61496.09;;;-147.04;100.00
39075;BME280;24826;52.070;20.970;2023-03-22T06:43:23;61512.00;;;-147.04;100.00
39075;BME280;24826;52.070;20.970;2023-03-22T06:46:07;61488.13;;;-147.04;100.00
39075;BME280;24826;52.070;20.970;2023-03-22T06:48:52;61490.13;;;-147.04;100.00
39075;BME280;24826;52.070;20.970;2023-03-22T06:51:36;61434.44;;;-147.04;100.00
39075;BME280;24826;52.070;20.970;2023-03-22T06:54:20;61464.28;;;-147.04;100.00
39075;BME280;24826;52.070;20.970;2023-03-22T06:57:05;61496.09;;;-147.04;100.00
39075;BME280;24826;52.070;20.970;2023-03-22T06:59:49;61488.13;;;-147.04;100.00
39075;BME280;24826;52.070;20.970;2023-03-22T07:02:33;61492.13;;;-147.04;100.00
39075;BME280;24826;52.070;20.970;2023-03-22T07:05:18;61484.16;;;-147.04;100.00
39075;BME280;24826;52.070;20.970;2023-03-22T07:08:02;61448.38;;;-147.04;100.00
39075;BME280;24826;52.070;20.970;2023-03-22T07:10:50;61486.16;;;-147.04;100.00
39075;BME280;24826;52.070;20.970;2023-03-22T07:13:34;61533.88;;;-147.04;100.00
39075;BME280;24826;52.070;20.970;2023-03-22T07:16:20;61535.88;;;-147.04;100.00
39075;BME280;24826;52.070;20.970;2023-03-22T07:19:04;61460.31;;;-147.04;100.00
39075;BME280;24826;52.070;20.970;2023-03-22T07:21:50;61512.00;;;-147.04;100.00
39075;BME280;24826;52.070;20.970;2023-03-22T07:24:34;61510.00;;;-147.04;100.00
39075;BME280;24826;52.070;20.970;2023-03-22T07:27:18;61480.19;;;-147.04;100.00
39075;BME280;24826;52.070;20.970;2023-03-22T07:30:04;61500.06;;;-147.04;100.00
39075;BME280;24826;52.070;20.970;2023-03-22T07:32:49;61535.88;;;-147.04;100.00
39075;BME280;24826;52.070;20.970;2023-03-22T07:35:34;61476.22;;;-147.04;100.00
39075;BME280;24826;52.070;20.970;2023-03-22T07:38:20;61480.19;;;-147.04;100.00
39075;BME280;24826;52.070;20.970;2023-03-22T07:41:04;61492.13;;;-147.04;100.00
39075;BME280;24826;52.070;20.970;2023-03-22T07:43:49;61496.09;;;-147.04;100.00
39075;BME280;24826;52.070;20.970;2023-03-22T07:46:33;61545.81;;;-147.04;100.00
39075;BME280;24826;52.070;20.970;2023-03-22T07:49:17;61514.00;;;-147.04;100.00
39075;BME280;24826;52.070;20.970;2023-03-22T07:52:02;61559.72;;;-147.04;100.00
39075;BME280;24826;52.070;20.970;2023-03-22T07:54:46;61561.72;;;-147.04;100.00
39075;BME280;24826;52.070;20.970;2023-03-22T07:57:31;61510.00;;;-147.04;100.00
39075;BME280;24826;52.070;20.970;2023-03-22T08:00:15;61543.81;;;-147.04;100.00
39075;BME280;24826;52.070;20.970;2023-03-22T08:03:00;61543.81;;;-147.04;100.00
39075;BME280;24826;52.070;20.970;2023-03-22T08:05:45;61541.81;;;-147.04;100.00
39075;BME280;24826;52.070;20.970;2023-03-22T08:08:30;61541.81;;;-147.04;100.00
39075;BME280;24826;52.070;20.970;2023-03-22T08:11:15;61551.78;;;-147.04;100.00
39075;BME280;24826;52.070;20.970;2023-03-22T08:13:59;61577.63;;;-147.04;100.00
39075;BME280;24826;52.070;20.970;2023-03-22T08:16:44;61567.69;;;-147.04;100.00
39075;BME280;24826;52.070;20.970;2023-03-22T08:19:29;61569.66;;;-147.04;100.00
39075;BME280;24826;52.070;20.970;2023-03-22T08:22:15;61555.75;;;-147.04;100.00
39075;BME280;24826;52.070;20.970;2023-03-22T08:24:59;61571.66;;;-147.04;100.00
39075;BME280;24826;52.070;20.970;2023-03-22T08:27:44;61563.69;;;-147.04;100.00
39075;BME280;24826;52.070;20.970;2023-03-22T08:30:28;61525.91;;;-147.04;100.00
39075;BME280;24826;52.070;20.970;2023-03-22T08:33:13;61515.97;;;-147.04;100.00
39075;BME280;24826;52.070;20.970;2023-03-22T08:36:12;61492.13;;;-147.04;100.00
39075;BME280;24826;52.070;20.970;2023-03-22T08:38:58;61474.22;;;-147.04;100.00
39075;BME280;24826;52.070;20.970;2023-03-22T08:41:42;61484.16;;;-147.04;100.00
39075;BME280;24826;52.070;20.970;2023-03-22T08:44:27;61519.94;;;-147.04;100.00
39075;BME280;24826;52.070;20.970;2023-03-22T08:47:11;61519.94;;;-147.04;100.00
39075;BME280;24826;52.070;20.970;2023-03-22T08:49:55;61500.06;;;-147.04;100.00
39075;BME280;24826;52.070;20.970;2023-03-22T08:52:39;61510.00;;;-147.04;100.00
39075;BME280;24826;52.070;20.970;2023-03-22T08:55:24;61512.00;;;-147.04;100.00
39075;BME280;24826;52.070;20.970;2023-03-22T08:58:08;61512.00;;;-147.04;100.00
39075;BME280;24826;52.070;20.970;2023-03-22T09:00:54;61523.94;;;-147.04;100.00
39075;BME280;24826;52.070;20.970;2023-03-22T09:03:39;61502.06;;;-147.04;100.00
39075;BME280;24826;52.070;20.970;2023-03-22T09:06:24;61488.13;;;-147.04;100.00
39075;BME280;24826;52.070;20.970;2023-03-22T09:09:08;61671.09;;;-147.04;100.00
39075;BME280;24826;52.070;20.970;2023-03-22T09:11:53;61478.19;;;-147.04;100.00
39075;BME280;24826;52.070;20.970;2023-03-22T09:14:37;61490.13;;;-147.04;100.00
39075;BME280;24826;52.070;20.970;2023-03-22T09:17:22;61531.88;;;-147.04;100.00
39075;BME280;24826;52.070;20.970;2023-03-22T09:20:06;61488.13;;;-147.04;100.00
39075;BME280;24826;52.070;20.970;2023-03-22T09:22:51;61452.34;;;-147.04;100.00
39075;BME280;24826;52.070;20.970;2023-03-22T09:25:35;61460.31;;;-147.04;100.00
39075;BME280;24826;52.070;20.970;2023-03-22T09:28:20;61500.06;;;-147.04;100.00
39075;BME280;24826;52.070;20.970;2023-03-22T09:31:08;61472.22;;;-147.04;100.00
39075;BME280;24826;52.070;20.970;2023-03-22T09:33:53;61539.84;;;-147.04;100.00
39075;BME280;24826;52.070;20.970;2023-03-22T09:36:37;61577.63;;;-147.04;100.00
39075;BME280;24826;52.070;20.970;2023-03-22T09:39:22;61500.06;;;-147.04;100.00
39075;BME280;24826;52.070;20.970;2023-03-22T09:42:19;61531.88;;;-147.04;100.00
39075;BME280;24826;52.070;20.970;2023-03-22T09:45:10;61521.94;;;-147.04;100.00
39075;BME280;24826;52.070;20.970;2023-03-22T09:47:56;61512.00;;;-147.04;100.00
39075;BME280;24826;52.070;20.970;2023-03-22T09:50:51;61515.97;;;-147.04;100.00
39075;BME280;24826;52.070;20.970;2023-03-22T09:53:35;61458.31;;;-147.04;100.00
39075;BME280;24826;52.070;20.970;2023-03-22T09:56:22;61504.03;;;-147.04;100.00
39075;BME280;24826;52.070;20.970;2023-03-22T09:59:24;61510.00;;;-147.04;100.00
39075;BME280;24826;52.070;20.970;2023-03-22T10:08:24;61531.88;;;-147.04;100.00
39075;BME280;24826;52.070;20.970;2023-03-22T10:11:46;61523.94;;;-147.04;100.00
39075;BME280;24826;52.070;20.970;2023-03-22T10:14:41;61527.91;;;-147.04;100.00
39075;BME280;24826;52.070;20.970;2023-03-22T10:17:29;61519.94;;;-147.04;100.00
39075;BME280;24826;52.070;20.970;2023-03-22T10:20:28;61508.03;;;-147.04;100.00
39075;BME280;24826;52.070;20.970;2023-03-22T10:23:17;61547.78;;;-147.04;100.00
39075;BME280;24826;52.070;20.970;2023-03-22T10:26:05;61496.09;;;-147.04;100.00
39075;BME280;24826;52.070;20.970;2023-03-22T10:29:02;61553.75;;;-147.04;100.00
39075;BME280;24826;52.070;20.970;2023-03-22T10:31:47;61531.88;;;-147.04;100.00
39075;BME280;24826;52.070;20.970;2023-03-22T10:34:31;61504.03;;;-147.04;100.00
39075;BME280;24826;52.070;20.970;2023-03-22T10:37:19;61533.88;;;-147.04;100.00
39075;BME280;24826;52.070;20.970;2023-03-22T10:40:05;61519.94;;;-147.04;100.00
39075;BME280;24826;52.070;20.970;2023-03-22T10:42:58;61500.06;;;-147.04;100.00
39075;BME280;24826;52.070;20.970;2023-03-22T10:45:44;61545.81;;;-147.04;100.00
39075;BME280;24826;52.070;20.970;2023-03-22T10:48:43;61523.94;;;-147.04;100.00
39075;BME280;24826;52.070;20.970;2023-03-22T10:51:38;61527.91;;;-147.04;100.00
39075;BME280;24826;52.070;20.970;2023-03-22T10:54:24;61527.91;;;-147.04;100.00
39075;BME280;24826;52.070;20.970;2023-03-22T10:57:08;61563.69;;;-147.04;100.00
39075;BME280;24826;52.070;20.970;2023-03-22T10:59:56;61527.91;;;-147.04;100.00
39075;BME280;24826;52.070;20.970;2023-03-22T11:02:52;61500.06;;;-147.04;100.00
39075;BME280;24826;52.070;20.970;2023-03-22T11:05:37;61523.94;;;-147.04;100.00
39075;BME280;24826;52.070;20.970;2023-03-22T11:08:21;61504.03;;;-147.04;100.00
39075;BME280;24826;52.070;20.970;2023-03-22T11:11:34;61547.78;;;-147.04;100.00
39075;BME280;24826;52.070;20.970;2023-03-22T11:17:14;61603.47;;;-147.04;100.00
39075;BME280;24826;52.070;20.970;2023-03-22T11:20:03;61541.81;;;-147.04;100.00
39075;BME280;24826;52.070;20.970;2023-03-22T11:22:53;61525.91;;;-147.04;100.00
39075;BME280;24826;52.070;20.970;2023-03-22T11:25:48;61543.81;;;-147.04;100.00
39075;BME280;24826;52.070;20.970;2023-03-22T11:29:20;61563.69;;;-147.04;100.00
39075;BME280;24826;52.070;20.970;2023-03-22T11:34:37;61563.69;;;-147.04;100.00
39075;BME280;24826;52.070;20.970;2023-03-22T11:37:21;61539.84;;;-147.04;100.00
39075;BME280;24826;52.070;20.970;2023-03-22T11:40:13;61547.78;;;-147.04;100.00
39075;BME280;24826;52.070;20.970;2023-03-22T11:43:14;61519.94;;;-147.04;100.00
39075;BME280;24826;52.070;20.970;2023-03-22T11:46:00;61535.88;;;-147.04;100.00
39075;BME280;24826;52.070;20.970;2023-03-22T11:48:50;61561.72;;;-147.04;100.00
39075;BME280;24826;52.070;20.970;2023-03-22T11:51:39;61521.94;;;-147.04;100.00
39075;BME280;24826;52.070;20.970;2023-03-22T11:54:28;61488.13;;;-147.04;100.00
39075;BME280;24826;52.070;20.970;2023-03-22T11:57:16;61543.81;;;-147.04;100.00
39075;BME280;24826;52.070;20.970;2023-03-22T12:00:20;61549.78;;;-147.04;100.00
39075;BME280;24826;52.070;20.970;2023-03-22T12:03:15;61500.06;;;-147.04;100.00
39075;BME280;24826;52.070;20.970;2023-03-22T12:06:03;61486.16;;;-147.04;100.00
39075;BME280;24826;52.070;20.970;2023-03-22T12:08:54;61504.03;;;-147.04;100.00
39075;BME280;24826;52.070;20.970;2023-03-22T12:11:43;61514.00;;;-147.04;100.00
39075;BME280;24826;52.070;20.970;2023-03-22T12:14:44;61529.91;;;-147.04;100.00
39075;BME280;24826;52.070;20.970;2023-03-22T12:23:23;61512.00;;;-147.04;100.00
39075;BME280;24826;52.070;20.970;2023-03-22T12:28:58;61504.03;;;-147.04;100.00
39075;BME280;24826;52.070;20.970;2023-03-22T12:31:55;61531.88;;;-147.04;100.00
39075;BME280;24826;52.070;20.970;2023-03-22T12:34:45;61539.84;;;-147.04;100.00
39075;BME280;24826;52.070;20.970;2023-03-22T12:37:34;61502.06;;;-147.04;100.00
39075;BME280;24826;52.070;20.970;2023-03-22T12:40:26;61514.00;;;-147.04;100.00
39075;BME280;24826;52.070;20.970;2023-03-22T12:43:25;61519.94;;;-147.04;100.00
39075;BME280;24826;52.070;20.970;2023-03-22T12:46:27;61521.94;;;-147.04;100.00
39075;BME280;24826;52.070;20.970;2023-03-22T12:49:24;61551.78;;;-147.04;100.00
39075;BME280;24826;52.070;20.970;2023-03-22T12:52:18;61496.09;;;-147.04;100.00
39075;BME280;24826;52.070;20.970;2023-03-22T12:55:05;61551.78;;;-147.04;100.00
39075;BME280;24826;52.070;20.970;2023-03-22T12:57:49;61583.59;;;-147.04;100.00
39075;BME280;24826;52.070;20.970;2023-03-22T13:00:43;61559.72;;;-147.04;100.00
39075;BME280;24826;52.070;20.970;2023-03-22T13:03:45;61547.78;;;-147.04;100.00
39075;BME280;24826;52.070;20.970;2023-03-22T13:06:54;61539.84;;;-147.04;100.00
39075;BME280;24826;52.070;20.970;2023-03-22T13:09:46;61539.84;;;-147.04;100.00
39075;BME280;24826;52.070;20.970;2023-03-22T13:12:33;61571.66;;;-147.04;100.00
39075;BME280;24826;52.070;20.970;2023-03-22T13:15:37;61569.66;;;-147.04;100.00
39075;BME280;24826;52.070;20.970;2023-03-22T13:18:36;61579.59;;;-147.04;100.00
39075;BME280;24826;52.070;20.970;2023-03-22T13:21:29;61555.75;;;-147.04;100.00
39075;BME280;24826;52.070;20.970;2023-03-22T13:27:00;61549.78;;;-147.04;100.00
39075;BME280;24826;52.070;20.970;2023-03-22T13:29:48;61575.63;;;-147.04;100.00
39075;BME280;24826;52.070;20.970;2023-03-22T13:32:37;61577.63;;;-147.04;100.00
39075;BME280;24826;52.070;20.970;2023-03-22T13:35:25;61579.59;;;-147.04;100.00
39075;BME280;24826;52.070;20.970;2023-03-22T13:41:29;61571.66;;;-147.04;100.00
39075;BME280;24826;52.070;20.970;2023-03-22T13:44:23;61583.59;;;-147.04;100.00
39075;BME280;24826;52.070;20.970;2023-03-22T13:47:29;61543.81;;;-147.04;100.00
39075;BME280;24826;52.070;20.970;2023-03-22T13:50:22;61527.91;;;-147.04;100.00
39075;BME280;24826;52.070;20.970;2023-03-22T13:53:20;61555.75;;;-147.04;100.00
39075;BME280;24826;52.070;20.970;2023-03-22T13:56:10;61508.03;;;-147.04;100.00
39075;BME280;24826;52.070;20.970;2023-03-22T13:58:56;61521.94;;;-147.04;100.00
39075;BME280;24826;52.070;20.970;2023-03-22T14:01:49;61515.97;;;-147.04;100.00
39075;BME280;24826;52.070;20.970;2023-03-22T14:04:55;61545.81;;;-147.04;100.00
39075;BME280;24826;52.070;20.970;2023-03-22T14:07:43;61537.84;;;-147.04;100.00
39075;BME280;24826;52.070;20.970;2023-03-22T14:10:40;61531.88;;;-147.04;100.00
39075;BME280;24826;52.070;20.970;2023-03-22T14:13:30;61533.88;;;-147.04;100.00
39075;BME280;24826;52.070;20.970;2023-03-22T14:16:34;61573.66;;;-147.04;100.00
39075;BME280;24826;52.070;20.970;2023-03-22T14:19:22;61541.81;;;-147.04;100.00
39075;BME280;24826;52.070;20.970;2023-03-22T14:22:14;61506.03;;;-147.04;100.00
39075;BME280;24826;52.070;20.970;2023-03-22T14:25:01;61508.03;;;-147.04;100.00
39075;BME280;24826;52.070;20.970;2023-03-22T14:27:46;61525.91;;;-147.04;100.00
39075;BME280;24826;52.070;20.970;2023-03-22T14:33:17;61492.13;;;-147.04;100.00
39075;BME280;24826;52.070;20.970;2023-03-22T14:36:06;61500.06;;;-147.04;100.00
39075;BME280;24826;52.070;20.970;2023-03-22T14:38:52;61514.00;;;-147.04;100.00
39075;BME280;24826;52.070;20.970;2023-03-22T14:41:36;61494.09;;;-147.04;100.00
39075;BME280;24826;52.070;20.970;2023-03-22T14:44:21;61496.09;;;-147.04;100.00
39075;BME280;24826;52.070;20.970;2023-03-22T14:47:17;61498.09;;;-147.04;100.00
39075;BME280;24826;52.070;20.970;2023-03-22T14:50:07;61508.03;;;-147.04;100.00
39075;BME280;24826;52.070;20.970;2023-03-22T14:52:52;61476.22;;;-147.04;100.00
39075;BME280;24826;52.070;20.970;2023-03-22T14:55:38;61476.22;;;-147.04;100.00
39075;BME280;24826;52.070;20.970;2023-03-22T14:58:31;61500.06;;;-147.04;100.00
39075;BME280;24826;52.070;20.970;2023-03-22T15:01:22;61496.09;;;-147.04;100.00
39075;BME280;24826;52.070;20.970;2023-03-22T15:04:09;61474.22;;;-147.04;100.00
39075;BME280;24826;52.070;20.970;2023-03-22T15:06:56;61468.25;;;-147.04;100.00